createdAt,value
2019-02-06T00:01:15.465Z,16.96
2019-02-06T00:03:46.868Z,16.97
2019-02-06T00:06:18.343Z,16.94
2019-02-06T00:08:49.985Z,16.94
2019-02-06T00:11:21.310Z,16.91
2019-02-06T00:13:52.526Z,16.97
2019-02-06T00:16:23.876Z,16.97
2019-02-06T00:18:55.662Z,16.87
2019-02-06T00:21:27.039Z,16.87
2019-02-06T00:23:59.186Z,16.77
2019-02-06T00:26:30.571Z,16.89
2019-02-06T00:29:01.955Z,16.86
2019-02-06T00:31:33.409Z,16.84
2019-02-06T00:34:04.984Z,16.81
2019-02-06T00:36:37.414Z,16.75
2019-02-06T00:39:11.111Z,16.68
2019-02-06T00:41:42.677Z,16.73
2019-02-06T00:44:14.147Z,16.73
2019-02-06T00:46:45.445Z,16.77
2019-02-06T00:49:17.090Z,16.73
2019-02-06T00:51:48.505Z,16.73
2019-02-06T00:54:19.798Z,16.84
2019-02-06T00:56:51.422Z,16.76
2019-02-06T00:59:22.900Z,16.83
2019-02-06T01:01:54.736Z,16.83
2019-02-06T01:04:26.509Z,16.76
2019-02-06T01:06:57.964Z,16.76
2019-02-06T01:09:29.998Z,16.74
2019-02-06T01:12:01.435Z,16.76
2019-02-06T01:14:33.755Z,16.72
2019-02-06T01:17:05.300Z,16.72
2019-02-06T01:19:37.097Z,16.73
2019-02-06T01:22:08.608Z,16.78
2019-02-06T01:24:40.289Z,16.78
2019-02-06T01:27:12.210Z,16.68
2019-02-06T01:29:43.870Z,16.70
2019-02-06T01:32:15.312Z,16.76
2019-02-06T01:34:46.912Z,16.64
2019-02-06T01:37:18.699Z,16.66
2019-02-06T01:39:50.753Z,16.66
2019-02-06T01:42:22.638Z,16.67
2019-02-06T01:44:54.724Z,16.59
2019-02-06T01:47:26.466Z,16.71
2019-02-06T01:49:57.928Z,16.76
2019-02-06T01:52:30.219Z,16.66
2019-02-06T01:55:02.048Z,16.57
2019-02-06T01:57:33.449Z,16.72
2019-02-06T02:00:07.235Z,16.72
2019-02-06T02:02:42.457Z,16.69
2019-02-06T02:05:15.794Z,16.84
2019-02-06T02:07:47.905Z,16.86
2019-02-06T02:10:21.566Z,16.86
2019-02-06T02:12:53.212Z,17.68
2019-02-06T02:15:24.932Z,17.93
2019-02-06T02:17:57.272Z,17.98
2019-02-06T02:20:29.989Z,17.98
2019-02-06T02:23:01.633Z,18.13
2019-02-06T02:25:33.341Z,18.04
2019-02-06T02:28:05.126Z,18.04
2019-02-06T02:30:43.734Z,18.25
2019-02-06T02:33:15.572Z,18.31
2019-02-06T02:35:47.583Z,18.31
2019-02-06T02:38:19.103Z,18.21
2019-02-06T02:40:51.243Z,18.30
2019-02-06T02:43:22.503Z,18.23
2019-02-06T02:45:54.125Z,18.29
2019-02-06T02:48:25.423Z,18.28
2019-02-06T02:50:57.507Z,18.28
2019-02-06T02:53:28.969Z,18.18
2019-02-06T02:56:00.770Z,18.18
2019-02-06T02:58:32.082Z,18.05
2019-02-06T03:01:23.719Z,18.05
2019-02-06T03:04:15.595Z,17.92
2019-02-06T03:06:47.201Z,17.85
2019-02-06T03:09:19.997Z,17.85
2019-02-06T03:11:51.751Z,17.80
2019-02-06T03:14:23.310Z,17.87
2019-02-06T03:16:55.335Z,17.90
2019-02-06T03:19:26.915Z,17.90
2019-02-06T03:21:58.669Z,17.87
2019-02-06T03:24:30.143Z,17.85
2019-02-06T03:27:01.630Z,17.80
2019-02-06T03:29:33.101Z,17.89
2019-02-06T03:32:04.960Z,17.89
2019-02-06T03:34:36.189Z,17.93
2019-02-06T03:37:07.755Z,17.93
2019-02-06T03:39:39.574Z,17.98
2019-02-06T03:42:11.602Z,18.02
2019-02-06T03:44:43.411Z,18.02
2019-02-06T03:47:15.323Z,18.02
2019-02-06T03:49:46.512Z,18.12
2019-02-06T03:52:18.380Z,18.10
2019-02-06T03:54:49.881Z,18.10
2019-02-06T03:57:21.570Z,18.14
2019-02-06T03:59:53.113Z,18.10
2019-02-06T04:02:24.881Z,18.15
2019-02-06T04:04:56.477Z,18.36
2019-02-06T04:07:27.928Z,18.38
2019-02-06T04:09:59.439Z,18.46
2019-02-06T04:12:30.796Z,18.46
2019-02-06T04:15:02.870Z,18.50
2019-02-06T04:17:34.722Z,18.50
2019-02-06T04:20:07.301Z,18.44
2019-02-06T04:22:38.777Z,18.49
2019-02-06T04:25:10.535Z,18.36
2019-02-06T04:27:42.093Z,18.44
2019-02-06T04:30:14.457Z,18.44
2019-02-06T04:32:46.391Z,18.32
2019-02-06T04:35:18.256Z,18.42
2019-02-06T04:37:50.118Z,18.53
2019-02-06T04:40:22.143Z,18.53
2019-02-06T04:42:53.797Z,18.15
2019-02-06T04:45:25.604Z,18.16
2019-02-06T04:47:56.919Z,18.53
2019-02-06T04:50:28.492Z,18.42
2019-02-06T04:52:59.811Z,18.52
2019-02-06T04:55:32.742Z,18.52
2019-02-06T04:58:04.319Z,18.57
2019-02-06T05:00:35.941Z,18.49
2019-02-06T05:03:07.316Z,18.63
2019-02-06T05:05:38.675Z,18.20
2019-02-06T05:08:11.556Z,18.42
2019-02-06T05:10:43.081Z,18.42
2019-02-06T05:13:14.372Z,18.50
2019-02-06T05:15:45.933Z,18.69
2019-02-06T05:18:17.692Z,18.69
2019-02-06T05:20:49.293Z,18.75
2019-02-06T05:23:20.823Z,19.08
2019-02-06T05:25:52.856Z,19.15
2019-02-06T05:28:24.434Z,19.15
2019-02-06T05:30:56.145Z,19.20
2019-02-06T05:33:27.493Z,19.30
2019-02-06T05:35:59.293Z,19.37
2019-02-06T05:38:31.587Z,19.44
2019-02-06T05:41:03.151Z,19.39
2019-02-06T05:43:34.978Z,19.46
2019-02-06T05:46:06.503Z,19.46
2019-02-06T05:48:38.036Z,19.70
2019-02-06T05:51:09.547Z,19.61
2019-02-06T05:53:41.268Z,19.59
2019-02-06T05:56:12.682Z,19.59
2019-02-06T05:58:44.142Z,19.79
2019-02-06T06:01:17.467Z,19.85
2019-02-06T06:03:49.048Z,20.01
2019-02-06T06:06:20.626Z,19.81
2019-02-06T06:08:53.221Z,19.81
2019-02-06T06:11:24.389Z,20.04
2019-02-06T06:13:58.563Z,20.04
2019-02-06T06:16:30.216Z,19.79
2019-02-06T06:19:01.777Z,19.79
2019-02-06T06:21:33.649Z,19.94
2019-02-06T06:24:05.342Z,20.10
2019-02-06T06:26:39.506Z,20.10
2019-02-06T06:29:11.116Z,20.32
2019-02-06T06:31:42.698Z,20.33
2019-02-06T06:34:14.285Z,20.33
2019-02-06T06:36:46.100Z,20.52
2019-02-06T06:39:17.918Z,20.51
2019-02-06T06:41:49.481Z,20.51
2019-02-06T06:44:21.201Z,20.53
2019-02-06T06:46:52.688Z,20.58
2019-02-06T06:49:24.079Z,20.74
2019-02-06T06:51:55.951Z,20.74
2019-02-06T06:54:27.356Z,20.92
2019-02-06T06:56:58.686Z,20.70
2019-02-06T06:59:30.107Z,20.93
2019-02-06T07:02:01.528Z,20.93
2019-02-06T07:04:33.116Z,20.81
2019-02-06T07:07:04.563Z,20.89
2019-02-06T07:09:36.205Z,21.11
2019-02-06T07:12:07.964Z,21.00
2019-02-06T07:14:39.765Z,20.96
2019-02-06T07:17:11.409Z,20.83
2019-02-06T07:19:42.887Z,20.81
2019-02-06T07:22:14.656Z,20.77
2019-02-06T07:24:46.321Z,20.85
2019-02-06T07:27:20.922Z,20.85
2019-02-06T07:29:51.254Z,20.71
2019-02-06T07:32:23.076Z,20.85
2019-02-06T07:34:54.585Z,20.85
2019-02-06T07:37:29.605Z,20.83
2019-02-06T07:39:59.974Z,20.83
2019-02-06T07:42:31.873Z,21.22
2019-02-06T07:45:03.923Z,21.08
2019-02-06T07:47:35.195Z,21.07
2019-02-06T07:50:07.898Z,21.16
2019-02-06T07:52:39.300Z,21.51
2019-02-06T07:55:10.876Z,21.51
2019-02-06T07:57:45.283Z,21.45
2019-02-06T08:00:17.210Z,21.45
2019-02-06T08:02:49.819Z,21.61
2019-02-06T08:05:21.627Z,21.65
2019-02-06T08:07:53.407Z,21.65
2019-02-06T08:10:30.443Z,21.45
2019-02-06T08:13:02.580Z,21.73
2019-02-06T08:15:34.182Z,21.69
2019-02-06T08:18:06.957Z,21.69
2019-02-06T08:20:38.829Z,21.80
2019-02-06T08:23:10.748Z,22.14
2019-02-06T08:25:41.868Z,22.16
2019-02-06T08:28:13.559Z,21.98
2019-02-06T08:30:44.885Z,21.74
2019-02-06T08:33:17.331Z,21.74
2019-02-06T08:35:48.545Z,21.85
2019-02-06T08:38:20.219Z,22.17
2019-02-06T08:40:51.469Z,22.23
2019-02-06T08:43:24.493Z,22.23
2019-02-06T08:45:56.807Z,22.27
2019-02-06T08:48:28.626Z,22.27
2019-02-06T08:51:00.045Z,22.22
2019-02-06T08:53:32.057Z,22.09
2019-02-06T08:56:03.609Z,22.15
2019-02-06T08:58:35.788Z,22.40
2019-02-06T09:01:07.416Z,22.40
2019-02-06T09:03:38.827Z,22.27
2019-02-06T09:06:10.358Z,22.28
2019-02-06T09:08:41.792Z,22.14
2019-02-06T09:11:13.336Z,22.23
2019-02-06T09:13:44.647Z,22.23
2019-02-06T09:16:16.558Z,22.13
2019-02-06T09:18:48.410Z,22.13
2019-02-06T09:21:19.880Z,22.23
2019-02-06T09:23:51.398Z,22.23
2019-02-06T09:26:23.037Z,22.23
2019-02-06T09:28:54.386Z,22.12
2019-02-06T09:31:25.913Z,22.16
2019-02-06T09:33:57.385Z,22.16
2019-02-06T09:36:28.858Z,22.01
2019-02-06T09:39:11.097Z,22.09
2019-02-06T09:41:36.324Z,22.09
2019-02-06T09:44:07.866Z,22.06
2019-02-06T09:46:40.799Z,22.06
2019-02-06T09:49:15.042Z,22.06
2019-02-06T09:51:46.099Z,22.09
2019-02-06T09:54:18.948Z,22.12
2019-02-06T09:56:50.857Z,22.14
2019-02-06T09:59:22.514Z,22.04
2019-02-06T10:01:54.625Z,22.04
2019-02-06T10:04:27.080Z,22.02
2019-02-06T10:06:59.069Z,22.07
2019-02-06T10:09:30.763Z,22.04
2019-02-06T10:12:02.468Z,22.01
2019-02-06T10:14:35.056Z,22.01
2019-02-06T10:17:07.003Z,22.08
2019-02-06T10:19:38.928Z,21.93
2019-02-06T10:22:10.427Z,21.98
2019-02-06T10:24:41.978Z,21.92
2019-02-06T10:27:14.096Z,21.90
2019-02-06T10:29:45.406Z,21.75
2019-02-06T10:32:16.683Z,21.83
2019-02-06T10:34:47.824Z,21.93
2019-02-06T10:37:19.460Z,21.93
2019-02-06T10:39:51.122Z,21.88
2019-02-06T10:42:22.603Z,21.87
2019-02-06T10:44:54.381Z,21.91
2019-02-06T10:47:25.943Z,21.78
2019-02-06T10:49:57.407Z,21.70
2019-02-06T10:52:28.883Z,21.69
2019-02-06T10:55:00.482Z,21.69
2019-02-06T10:57:32.170Z,21.65
2019-02-06T11:00:03.901Z,21.56
2019-02-06T11:02:36.971Z,21.56
2019-02-06T11:05:08.580Z,21.60
2019-02-06T11:07:40.367Z,21.60
2019-02-06T11:10:12.500Z,21.55
2019-02-06T11:12:44.578Z,21.51
2019-02-06T11:15:16.312Z,21.51
2019-02-06T11:17:48.105Z,21.44
2019-02-06T11:20:20.519Z,21.41
2019-02-06T11:22:52.184Z,21.33
2019-02-06T11:25:24.022Z,21.33
2019-02-06T11:27:56.015Z,21.30
2019-02-06T11:30:29.789Z,21.30
2019-02-06T11:33:01.539Z,21.22
2019-02-06T11:35:33.454Z,21.24
2019-02-06T11:38:06.404Z,21.22
2019-02-06T11:40:38.263Z,21.15
2019-02-06T11:43:10.291Z,21.16
2019-02-06T11:45:42.464Z,21.16
2019-02-06T11:48:14.252Z,21.10
2019-02-06T11:50:46.069Z,21.10
2019-02-06T11:53:26.535Z,20.92
2019-02-06T11:55:58.930Z,20.84
2019-02-06T11:58:30.405Z,20.84
2019-02-06T12:01:21.131Z,20.63
2019-02-06T12:03:52.720Z,20.56
2019-02-06T12:06:24.327Z,20.56
2019-02-06T12:08:56.130Z,20.45
2019-02-06T12:11:28.117Z,20.44
2019-02-06T12:13:59.674Z,20.40
2019-02-06T12:16:31.503Z,20.35
2019-02-06T12:19:02.834Z,20.37
2019-02-06T12:21:34.728Z,20.33
2019-02-06T12:24:07.510Z,20.33
2019-02-06T12:26:39.250Z,20.28
2019-02-06T12:29:11.951Z,20.30
2019-02-06T12:31:43.310Z,20.25
2019-02-06T12:34:15.688Z,20.25
2019-02-06T12:36:46.843Z,20.17
2019-02-06T12:39:18.101Z,20.18
2019-02-06T12:41:49.158Z,20.22
2019-02-06T12:44:21.683Z,20.29
2019-02-06T12:46:53.081Z,20.26
2019-02-06T12:49:24.794Z,20.22
2019-02-06T12:51:56.458Z,20.23
2019-02-06T12:54:27.961Z,20.25
2019-02-06T12:56:59.775Z,20.23
2019-02-06T12:59:31.421Z,20.13
2019-02-06T13:02:03.152Z,20.14
2019-02-06T13:04:35.238Z,20.14
2019-02-06T13:07:06.688Z,20.13
2019-02-06T13:09:38.578Z,20.18
2019-02-06T13:12:11.552Z,20.25
2019-02-06T13:14:43.778Z,20.24
2019-02-06T13:17:15.419Z,20.25
2019-02-06T13:19:46.727Z,20.16
2019-02-06T13:22:18.207Z,20.16
2019-02-06T13:24:49.958Z,20.20
2019-02-06T13:27:22.742Z,20.12
2019-02-06T13:29:54.159Z,20.12
2019-02-06T13:32:28.723Z,20.05
2019-02-06T13:35:00.333Z,20.10
2019-02-06T13:37:32.274Z,20.04
2019-02-06T13:40:03.528Z,20.04
2019-02-06T13:42:34.620Z,19.98
2019-02-06T13:45:07.760Z,20.00
2019-02-06T13:47:40.451Z,19.88
2019-02-06T13:50:21.547Z,19.88
2019-02-06T13:52:45.654Z,19.89
2019-02-06T13:55:18.861Z,19.94
2019-02-06T13:57:51.054Z,19.83
2019-02-06T14:00:24.515Z,19.83
2019-02-06T14:02:56.255Z,19.83
2019-02-06T14:05:29.115Z,19.77
2019-02-06T14:08:02.731Z,19.72
2019-02-06T14:10:33.998Z,19.72
2019-02-06T14:13:08.537Z,19.81
2019-02-06T14:15:42.128Z,19.81
2019-02-06T14:18:13.762Z,19.77
2019-02-06T14:20:45.847Z,19.63
2019-02-06T14:23:57.479Z,19.63
2019-02-06T14:26:45.063Z,19.63
2019-02-06T14:29:31.396Z,19.59
2019-02-06T14:32:16.576Z,19.55
2019-02-06T14:35:37.711Z,19.65
2019-02-06T14:38:50.139Z,19.65
2019-02-06T14:42:00.300Z,19.58
2019-02-06T14:45:09.313Z,19.59
2019-02-06T14:48:13.448Z,19.56
2019-02-06T14:50:59.560Z,19.56
2019-02-06T14:54:11.198Z,19.60
2019-02-06T14:57:20.235Z,19.60
2019-02-06T15:00:18.095Z,19.59
2019-02-06T15:03:28.804Z,19.59
2019-02-06T15:06:39.220Z,19.49
2019-02-06T15:09:46.144Z,19.49
2019-02-06T15:12:57.271Z,19.50
2019-02-06T15:15:59.767Z,19.50
2019-02-06T15:19:25.902Z,19.47
2019-02-06T15:22:25.779Z,19.35
2019-02-06T15:25:52.304Z,19.44
2019-02-06T15:28:59.751Z,19.36
2019-02-06T15:31:59.165Z,19.36
2019-02-06T15:35:07.310Z,19.39
2019-02-06T15:38:02.096Z,19.48
2019-02-06T15:41:13.160Z,19.45
2019-02-06T15:44:38.687Z,19.37
2019-02-06T15:47:51.360Z,19.43
2019-02-06T15:50:58.884Z,19.43
2019-02-06T15:53:44.908Z,19.40
2019-02-06T15:56:41.876Z,19.40
2019-02-06T15:59:59.340Z,19.37
2019-02-06T16:02:42.817Z,19.39
2019-02-06T16:05:50.068Z,19.34
2019-02-06T16:08:53.177Z,19.34
2019-02-06T16:12:00.363Z,19.41
2019-02-06T16:15:07.030Z,19.41
2019-02-06T16:18:25.132Z,19.43
2019-02-06T16:21:29.636Z,19.43
2019-02-06T16:24:35.412Z,19.30
2019-02-06T16:27:26.277Z,19.30
2019-02-06T16:30:43.966Z,19.36
2019-02-06T16:33:37.316Z,19.24
2019-02-06T16:36:41.753Z,19.24
2019-02-06T16:39:48.761Z,19.24
2019-02-06T16:43:08.839Z,19.24
2019-02-06T16:46:17.895Z,19.32
2019-02-06T16:49:18.262Z,19.29
2019-02-06T16:52:39.531Z,19.37
2019-02-06T16:55:57.062Z,19.23
2019-02-06T16:58:43.039Z,19.28
2019-02-06T17:01:49.929Z,19.31
2019-02-06T17:04:34.065Z,19.31
2019-02-06T17:07:56.101Z,19.09
2019-02-06T17:10:58.677Z,19.09
2019-02-06T17:14:17.526Z,19.19
2019-02-06T17:17:13.304Z,19.15
2019-02-06T17:20:27.224Z,19.08
2019-02-06T17:23:22.062Z,19.09
2019-02-06T17:26:20.320Z,19.05
2019-02-06T17:29:24.100Z,19.05
2019-02-06T17:32:22.420Z,19.09
2019-02-06T17:35:29.152Z,19.13
2019-02-06T17:38:29.069Z,19.13
2019-02-06T17:41:23.927Z,19.01
2019-02-06T17:44:12.682Z,19.02
2019-02-06T17:47:13.684Z,18.99
2019-02-06T17:50:27.398Z,19.03
2019-02-06T17:53:59.998Z,18.89
2019-02-06T17:56:31.397Z,18.91
2019-02-06T17:59:05.741Z,18.91
2019-02-06T18:01:49.218Z,18.95
2019-02-06T18:04:33.306Z,19.01
2019-02-06T18:07:07.050Z,18.95
2019-02-06T18:09:38.913Z,18.88
2019-02-06T18:12:10.789Z,18.83
2019-02-06T18:14:43.252Z,18.92
2019-02-06T18:17:14.811Z,18.81
2019-02-06T18:19:47.328Z,18.87
2019-02-06T18:22:19.106Z,18.87
2019-02-06T18:24:50.759Z,18.86
2019-02-06T18:27:22.220Z,18.83
2019-02-06T18:29:53.896Z,18.64
2019-02-06T18:32:25.247Z,18.64
2019-02-06T18:34:56.690Z,18.61
2019-02-06T18:37:28.017Z,18.56
2019-02-06T18:40:02.661Z,18.71
2019-02-06T18:42:38.693Z,18.67
2019-02-06T18:45:14.869Z,18.67
2019-02-06T18:47:47.246Z,18.67
2019-02-06T18:50:22.915Z,18.39
2019-02-06T18:52:54.550Z,18.39
2019-02-06T18:55:27.340Z,18.50
2019-02-06T18:57:59.313Z,18.50
2019-02-06T19:00:32.716Z,18.34
2019-02-06T19:03:11.402Z,18.27
2019-02-06T19:05:42.554Z,18.28
2019-02-06T19:08:17.117Z,18.41
2019-02-06T19:10:54.022Z,18.41
2019-02-06T19:13:25.730Z,18.32
2019-02-06T19:15:57.013Z,18.34
2019-02-06T19:18:28.049Z,18.29
2019-02-06T19:21:03.160Z,18.30
2019-02-06T19:23:41.167Z,18.30
2019-02-06T19:26:12.513Z,18.13
2019-02-06T19:28:49.665Z,18.20
2019-02-06T19:31:24.784Z,18.20
2019-02-06T19:33:56.127Z,18.19
2019-02-06T19:36:27.977Z,18.21
2019-02-06T19:39:01.263Z,18.31
2019-02-06T19:41:37.896Z,18.13
2019-02-06T19:44:12.540Z,18.22
2019-02-06T19:46:49.144Z,18.23
2019-02-06T19:49:20.382Z,18.23
2019-02-06T19:51:51.673Z,18.13
2019-02-06T19:54:22.862Z,18.22
2019-02-06T19:56:54.125Z,18.22
2019-02-06T19:59:30.247Z,18.26
2019-02-06T20:02:09.128Z,18.26
2019-02-06T20:04:40.475Z,18.04
2019-02-06T20:07:11.673Z,18.14
2019-02-06T20:09:53.017Z,18.14
2019-02-06T20:12:37.602Z,18.15
2019-02-06T20:15:15.285Z,18.25
2019-02-06T20:17:49.657Z,18.06
2019-02-06T20:20:31.399Z,18.06
2019-02-06T20:23:02.949Z,18.10
2019-02-06T20:25:34.485Z,18.01
2019-02-06T20:28:05.875Z,18.01
2019-02-06T20:30:43.026Z,18.07
2019-02-06T20:33:17.855Z,17.97
2019-02-06T20:35:50.511Z,18.02
2019-02-06T20:38:22.096Z,18.10
2019-02-06T20:41:00.666Z,17.93
2019-02-06T20:44:07.007Z,17.93
2019-02-06T20:46:38.228Z,17.98
2019-02-06T20:49:09.667Z,17.96
2019-02-06T20:51:42.167Z,18.00
2019-02-06T20:54:13.584Z,18.00
2019-02-06T20:56:44.931Z,18.04
2019-02-06T20:59:16.083Z,18.03
2019-02-06T21:01:47.459Z,18.03
2019-02-06T21:04:18.718Z,18.04
2019-02-06T21:06:49.966Z,17.90
2019-02-06T21:09:21.610Z,17.98
2019-02-06T21:11:53.252Z,17.91
2019-02-06T21:14:24.766Z,17.99
2019-02-06T21:16:56.705Z,18.00
2019-02-06T21:19:28.307Z,17.84
2019-02-06T21:21:59.631Z,17.84
2019-02-06T21:24:30.787Z,17.82
2019-02-06T21:27:02.331Z,17.80
2019-02-06T21:29:33.590Z,17.80
2019-02-06T21:32:05.400Z,17.81
2019-02-06T21:34:36.910Z,17.89
2019-02-06T21:37:08.334Z,17.66
2019-02-06T21:39:39.529Z,17.72
2019-02-06T21:42:11.025Z,17.72
2019-02-06T21:44:42.541Z,17.60
2019-02-06T21:47:14.404Z,17.75
2019-02-06T21:49:45.798Z,17.70
2019-02-06T21:52:17.618Z,17.73
2019-02-06T21:54:49.123Z,17.63
2019-02-06T21:57:20.638Z,17.68
2019-02-06T21:59:52.000Z,17.54
2019-02-06T22:02:23.253Z,17.54
2019-02-06T22:04:54.364Z,17.71
2019-02-06T22:07:25.920Z,17.56
2019-02-06T22:09:57.178Z,17.50
2019-02-06T22:12:28.776Z,17.50
2019-02-06T22:14:59.977Z,17.61
2019-02-06T22:17:31.345Z,17.66
2019-02-06T22:20:02.477Z,17.69
2019-02-06T22:22:33.836Z,17.70
2019-02-06T22:25:06.156Z,17.56
2019-02-06T22:27:37.809Z,17.56
2019-02-06T22:30:12.093Z,17.61
2019-02-06T22:32:43.556Z,17.55
2019-02-06T22:35:14.871Z,17.72
2019-02-06T22:37:46.888Z,17.49
2019-02-06T22:40:19.889Z,17.49
2019-02-06T22:42:51.735Z,17.69
2019-02-06T22:45:25.025Z,17.43
2019-02-06T22:47:56.468Z,17.50
2019-02-06T22:50:28.900Z,17.50
2019-02-06T22:53:00.694Z,17.41
2019-02-06T22:55:32.304Z,17.41
2019-02-06T22:58:04.005Z,17.43
2019-02-06T23:01:00.519Z,17.40
2019-02-06T23:03:35.712Z,17.34
2019-02-06T23:06:08.533Z,17.34
2019-02-06T23:08:39.763Z,17.35
2019-02-06T23:11:12.431Z,17.35
2019-02-06T23:13:45.614Z,17.19
2019-02-06T23:16:17.337Z,17.23
2019-02-06T23:18:48.626Z,17.30
2019-02-06T23:21:20.703Z,17.34
2019-02-06T23:23:52.155Z,17.34
2019-02-06T23:26:27.124Z,17.30
2019-02-06T23:28:58.990Z,17.32
2019-02-06T23:31:30.856Z,17.32
2019-02-06T23:34:02.235Z,17.13
2019-02-06T23:36:33.966Z,17.35
2019-02-06T23:39:13.599Z,17.17
2019-02-06T23:41:44.961Z,17.22
2019-02-06T23:44:16.692Z,17.22
2019-02-06T23:46:48.564Z,17.35
2019-02-06T23:49:19.832Z,17.29
2019-02-06T23:51:51.190Z,17.26
2019-02-06T23:54:22.440Z,17.26
2019-02-06T23:56:54.573Z,17.28
2019-02-06T23:59:26.334Z,17.20
